Terminal Aerodrome Forecast
Issued by NWS

Home | Current Version | Previous Version | Text Only | Print | Product List | Glossary On
Versions: 1 2 3 4 5 6 7 8 9 10 11 12 13 14 15
000
FTAK31 PAJN 300540
TAFASI
TAF
PASI 300540Z 3006/3106 VRB02KT P6SM OVC020
     FM301000 00000KT P6SM VCSH SCT015 OVC020
     FM301700 VRB04KT P6SM SCT020 OVC080
     FM302000 28009KT P6SM BKN060
     FM310200 30006KT P6SM SCT060=

USA.gov is the U.S. government's official web portal to all federal, state and local government web resources and services.